This is the latest recevied weather packets stored in our database for station/object KD8ZLZ-13. If no packets are shown the sender has not sent any weather packets the latest 10 day(s).
| Time | Temp. | Humidity | Pressure | Rain* | Wind** | Luminosity | Snow |
|---|---|---|---|---|---|---|---|
| 1777813992 | 8.33° C | 55% | 1015.3 hPa | 0 mm | - | 336 W/m² | - |
| 1777813392 | 7.22° C | 57% | 1015.3 hPa | 0 mm | - | 298 W/m² | - |
| 1777812792 | 6.67° C | 59% | 1015.3 hPa | 0 mm | - | 266 W/m² | - |
| 1777812192 | 6.11° C | 61% | 1015.3 hPa | 0 mm | - | 233 W/m² | - |
| 1777811592 | 5.56° C | 62% | 1015.3 hPa | 0 mm | - | 204 W/m² | - |
| 1777810992 | 5° C | 62% | 1015.3 hPa | 0 mm | - | 139 W/m² | - |
| 1777810392 | 4.44° C | 62% | 1015.3 hPa | 0 mm | - | 120 W/m² | - |
| 1777809792 | 4.44° C | 63% | 1015.3 hPa | 0 mm | - | 107 W/m² | - |
| 1777809192 | 3.89° C | 64% | 1015.3 hPa | 0 mm | - | 94 W/m² | - |
| 1777808592 | 3.33° C | 67% | 1015.3 hPa | 0 mm | - | 78 W/m² | - |
| 1777807993 | 2.78° C | 66% | 1015.3 hPa | 0 mm | - | 46 W/m² | - |
| 1777807392 | 2.78° C | 67% | 1015.3 hPa | 0 mm | - | 38 W/m² | - |
| 1777806792 | 2.22° C | 66% | 1015.3 hPa | 0 mm | - | 30 W/m² | - |
| 1777806192 | 2.22° C | 66% | 1015.3 hPa | 0 mm | - | 23 W/m² | - |
| 1777805592 | 1.67° C | 69% | 1015.3 hPa | 0 mm | - | 15 W/m² | - |
| 1777804992 | 1.67° C | 69% | 1015.3 hPa | 0 mm | - | 8 W/m² | - |
| 1777804392 | 1.67° C | 69% | 1015.3 hPa | 0 mm | - | 3 W/m² | - |
| 1777803792 | 1.67° C | 70% | 1015.6 hPa | 0 mm | - | 1 W/m² | - |
| 1777803192 | 1.67° C | 72% | 1015.6 hPa | 0 mm | - | 0 W/m² | - |
| 1777802592 | 1.11° C | 73% | 1015.9 hPa | 0 mm | - | 0 W/m² | - |
| 1777801992 | 1.67° C | 73% | 1015.9 hPa | 0 mm | - | 0 W/m² | - |
| 1777801392 | 1.11° C | 75% | 1015.9 hPa | 0 mm | - | 0 W/m² | - |
| 1777800792 | 1.11° C | 74% | 1015.9 hPa | 0 mm | - | 0 W/m² | - |
| 1777800192 | 1.11° C | 74% | 1015.9 hPa | 0 mm | - | 0 W/m² | - |
| 1777799592 | 1.67° C | 72% | 1015.9 hPa | 0 mm | - | 0 W/m² | - |
* Rain latest hour (hover to see other rain measurements)
** Current wind speed in m/s (hover to see current wind gust speed)